Time;durP1;ratioP1;P1;durP2;ratioP2;P2;SDS_P1;SDS_P2;PMS_P1;PMS_P2;Temp;Humidity;BMP_temperature;BMP_pressure;BME280_temperature;BME280_humidity;BME280_pressure;Samples;Min_cycle;Max_cycle;Signal;HPM_P1;HPM_P2
2022/08/22 00:01:27;;;;;;;13.25;7.17;;;;;;;22.54;69.19;100384.47;1798038;79;25730;-55
2022/08/22 00:04:17;;;;;;;20.20;7.65;;;;;;;22.49;69.84;100377.47;1798270;79;27314;-54
2022/08/22 00:07:13;;;;;;;20.40;8.25;;;;;;;22.49;69.71;100380.21;1763831;79;25780;-54
2022/08/22 00:10:00;;;;;;;23.73;7.67;;;;;;;22.53;69.88;100371.00;1798323;79;25775;-55
2022/08/22 00:12:35;;;;;;;16.42;8.00;;;;;;;22.56;69.76;100374.12;1798340;79;26873;-53
2022/08/22 00:15:23;;;;;;;13.18;7.35;;;;;;;22.58;69.73;100380.23;1797464;78;25742;-55
2022/08/22 00:18:04;;;;;;;12.03;7.55;;;;;;;22.62;69.63;100377.88;1798037;79;28239;-55
2022/08/22 00:20:42;;;;;;;21.75;8.13;;;;;;;22.63;69.39;100375.44;1787025;79;25761;-55
2022/08/22 00:23:23;;;;;;;18.42;7.72;;;;;;;22.64;69.42;100367.50;1799563;79;25771;-54
2022/08/22 00:26:01;;;;;;;19.77;7.28;;;;;;;22.62;69.16;100366.91;1787712;80;25813;-55
2022/08/22 00:28:53;;;;;;;21.57;7.10;;;;;;;22.59;69.20;100379.69;1787824;80;25761;-55
2022/08/22 00:31:40;;;;;;;15.43;6.75;;;;;;;22.58;69.11;100379.37;1787782;78;27633;-55
2022/08/22 00:34:24;;;;;;;27.73;7.47;;;;;;;22.57;69.17;100377.70;1787631;79;25940;-55
2022/08/22 00:37:26;;;;;;;16.27;7.72;;;;;;;22.56;69.26;100371.39;1787819;78;25818;-54
2022/08/22 00:40:14;;;;;;;18.87;7.37;;;;;;;22.51;69.02;100373.44;1787707;80;26596;-54
2022/08/22 00:43:23;;;;;;;15.28;7.67;;;;;;;22.49;68.94;100363.77;1787272;78;26092;-55
2022/08/22 00:46:17;;;;;;;13.48;7.00;;;;;;;22.45;68.98;100366.13;1761818;78;27536;-56
2022/08/22 00:49:43;;;;;;;17.02;7.60;;;;;;;22.42;69.12;100373.41;1786348;78;33266;-54
2022/08/22 00:52:57;;;;;;;15.68;7.15;;;;;;;22.38;69.08;100363.92;1787030;78;25914;-55
2022/08/22 00:55:49;;;;;;;18.00;6.70;;;;;;;22.36;69.50;100369.63;1787159;80;25837;-55
2022/08/22 00:58:55;;;;;;;17.30;7.95;;;;;;;22.25;69.77;100366.79;1782635;79;26255;-55
2022/08/22 01:01:36;;;;;;;25.55;7.97;;;;;;;22.20;69.79;100370.20;1787512;78;27470;-55
2022/08/22 01:04:38;;;;;;;16.32;7.87;;;;;;;22.15;69.78;100372.75;1787494;78;26410;-54
2022/08/22 01:07:28;;;;;;;13.88;7.08;;;;;;;22.13;69.86;100378.46;1787789;78;25692;-55
2022/08/22 01:10:28;;;;;;;15.05;7.03;;;;;;;22.10;69.75;100380.27;1787080;80;25887;-53
2022/08/22 01:13:38;;;;;;;17.77;8.05;;;;;;;21.99;71.32;100387.30;1787535;79;25768;-55
2022/08/22 01:16:27;;;;;;;15.20;7.85;;;;;;;21.89;70.66;100389.17;1787846;78;28484;-55
2022/08/22 01:19:08;;;;;;;13.88;7.53;;;;;;;21.88;70.68;100384.75;1784303;78;25718;-55
2022/08/22 01:21:52;;;;;;;19.62;7.90;;;;;;;21.93;70.95;100388.20;1737815;82;25676;-55
2022/08/22 01:25:17;;;;;;;16.80;7.90;;;;;;;21.95;70.93;100389.34;1797248;79;25899;-55
2022/08/22 01:28:39;;;;;;;19.67;7.37;;;;;;;21.98;71.02;100384.80;1755560;81;25784;-55
2022/08/22 01:31:39;;;;;;;19.52;7.72;;;;;;;;;;1759734;80;27477;-54
2022/08/22 01:34:37;;;;;;;13.93;7.58;;;;;;;21.94;70.91;100387.66;1786814;80;25836;-53
2022/08/22 01:37:26;;;;;;;15.88;7.55;;;;;;;21.91;70.78;100382.09;1786841;78;25722;-55
2022/08/22 01:40:48;;;;;;;20.45;8.58;;;;;;;21.93;70.87;100391.45;1786216;78;25790;-56
2022/08/22 01:44:09;;;;;;;18.65;7.10;;;;;;;21.91;70.88;100393.59;1786714;78;25292;-57
2022/08/22 01:47:16;;;;;;;18.32;8.00;;;;;;;21.87;70.69;100392.66;1762654;80;29755;-62
2022/08/22 01:50:05;;;;;;;13.78;7.33;;;;;;;21.89;70.90;100396.02;1775919;80;26162;-61
2022/08/22 01:53:01;;;;;;;16.15;7.80;;;;;;;21.79;70.62;100389.33;1749611;78;25350;-63
2022/08/22 01:55:37;;;;;;;18.40;7.97;;;;;;;21.65;71.34;100398.17;1819107;78;26499;-63
2022/08/22 01:58:25;;;;;;;18.30;7.42;;;;;;;21.54;72.94;100393.66;1831948;77;26074;-62
2022/08/22 02:01:23;;;;;;;18.27;7.45;;;;;;;21.48;72.55;100398.62;1832340;78;27470;-61
2022/08/22 02:04:18;;;;;;;25.05;8.60;;;;;;;21.49;72.51;100396.20;1831153;78;25763;-61
2022/08/22 02:07:25;;;;;;;14.40;8.28;;;;;;;21.50;72.49;100399.25;1830425;77;25725;-61
2022/08/22 02:10:47;;;;;;;17.07;7.78;;;;;;;21.50;72.58;100396.52;1832211;78;25841;-62
2022/08/22 02:13:49;;;;;;;31.57;8.78;;;;;;;21.55;72.79;100398.59;1829012;77;25699;-62
2022/08/22 02:16:34;;;;;;;18.75;8.25;;;;;;;21.47;74.03;100394.74;1832604;78;27641;-61
2022/08/22 02:22:30;;;;;;;;;;;;;;;21.38;73.54;100398.27;1735160;79;25849;-61
2022/08/22 02:25:06;;;;;;;17.48;7.50;;;;;;;21.39;73.15;100390.34;1698589;84;26358;-61
2022/08/22 02:28:12;;;;;;;10.43;7.58;;;;;;;21.36;73.35;100394.36;1735467;82;25779;-61
2022/08/22 02:31:16;;;;;;;11.60;7.37;;;;;;;21.35;73.17;100389.94;1741629;82;28307;-61
2022/08/22 02:34:00;;;;;;;17.12;7.40;;;;;;;21.30;73.12;100393.88;1733194;82;25843;-61
2022/08/22 02:37:09;;;;;;;15.68;7.42;;;;;;;21.28;73.17;100396.52;1735583;81;25953;-61
2022/08/22 02:40:07;;;;;;;14.93;7.30;;;;;;;21.24;73.15;100398.85;1720457;82;25791;-60
2022/08/22 02:43:03;;;;;;;16.10;7.87;;;;;;;21.25;73.35;100397.77;1726418;80;25923;-61
2022/08/22 02:46:19;;;;;;;10.95;7.33;;;;;;;21.28;73.46;100395.16;1748158;80;27672;-62
2022/08/22 02:49:17;;;;;;;13.85;7.37;;;;;;;21.30;73.57;100395.75;1716722;81;25972;-62
2022/08/22 02:52:10;;;;;;;12.50;7.08;;;;;;;21.31;73.72;100397.44;1748298;80;25730;-61
2022/08/22 02:55:09;;;;;;;12.88;7.70;;;;;;;21.24;74.01;100400.22;1741603;80;25959;-62
2022/08/22 02:57:46;;;;;;;19.23;7.97;;;;;;;21.20;73.65;100405.25;1756578;81;25710;-62
2022/08/22 03:00:41;;;;;;;17.10;8.18;;;;;;;21.22;73.64;100406.42;1736980;81;28455;-61
2022/08/22 03:03:27;;;;;;;16.95;7.35;;;;;;;21.22;73.75;100415.45;1702183;82;25797;-61
2022/08/22 03:06:36;;;;;;;13.20;7.40;;;;;;;21.25;73.58;100415.55;1701827;83;25956;-61
2022/08/22 03:09:48;;;;;;;13.08;7.75;;;;;;;21.26;74.04;100409.88;1695641;84;25830;-62
2022/08/22 03:12:50;;;;;;;11.50;7.03;;;;;;;21.22;73.94;100412.72;1691409;84;26231;-63
2022/08/22 03:15:49;;;;;;;21.12;8.23;;;;;;;21.23;73.79;100415.77;1695168;83;27579;-62
2022/08/22 03:18:47;;;;;;;15.30;7.47;;;;;;;21.24;73.52;100418.83;1688520;82;26129;-62
2022/08/22 03:21:39;;;;;;;23.62;7.97;;;;;;;21.22;73.56;100418.19;1691108;83;26521;-62
2022/08/22 03:24:25;;;;;;;20.60;8.35;;;;;;;21.19;73.60;100417.79;1678527;84;26325;-61
2022/08/22 03:27:13;;;;;;;19.60;7.87;;;;;;;21.20;73.53;100424.40;1737033;82;25670;-63
2022/08/22 03:29:57;;;;;;;13.88;7.80;;;;;;;21.22;73.79;100420.93;1773965;79;27556;-62
2022/08/22 03:33:17;;;;;;;22.13;7.47;;;;;;;21.24;73.70;100420.19;1769530;80;25838;-61
2022/08/22 03:35:53;;;;;;;12.53;7.30;;;;;;;21.23;73.62;100420.42;1773683;79;25321;-62
2022/08/22 03:39:01;;;;;;;20.68;8.40;;;;;;;21.22;73.71;100417.37;1782503;77;26172;-61
2022/08/22 03:42:03;;;;;;;16.60;7.83;;;;;;;21.12;74.53;100420.53;1810206;78;25939;-62
2022/08/22 03:45:00;;;;;;;17.45;7.12;;;;;;;21.02;74.54;100422.90;1746105;80;28441;-63
2022/08/22 03:48:16;;;;;;;16.05;7.92;;;;;;;20.98;74.39;100427.10;1772969;80;26149;-62
2022/08/22 03:51:49;;;;;;;;;;;;;;;;;;;;;
2022/08/22 03:55:05;;;;;;;11.22;7.25;;;;;;;21.02;74.43;100422.90;1723281;82;25310;-62
2022/08/22 04:01:36;;;;;;;19.12;6.87;;;;;;;21.07;74.37;100436.77;1770760;80;27821;-61
2022/08/22 04:04:54;;;;;;;10.50;6.72;;;;;;;21.11;74.25;100442.12;1771697;79;25299;-62
2022/08/22 04:08:01;;;;;;;13.50;7.30;;;;;;;21.16;74.39;100445.59;1763805;80;25993;-60
2022/08/22 04:11:13;;;;;;;19.02;7.53;;;;;;;21.23;74.49;100451.34;1771683;80;26029;-61
2022/08/22 04:14:14;;;;;;;18.48;7.58;;;;;;;21.24;74.31;100451.65;1738593;80;26468;-61
2022/08/22 04:17:16;;;;;;;13.70;8.05;;;;;;;21.29;74.44;100454.28;1771591;80;28458;-61
2022/08/22 04:20:26;;;;;;;13.10;7.50;;;;;;;21.24;74.13;100453.02;1766368;80;25819;-61
2022/08/22 04:23:24;;;;;;;20.80;7.83;;;;;;;21.21;74.31;100447.97;1754711;80;26381;-61
2022/08/22 04:26:02;;;;;;;11.50;7.33;;;;;;;21.33;74.79;100455.52;1736326;82;25859;-61
2022/08/22 04:28:40;;;;;;;14.93;7.28;;;;;;;21.38;74.58;100444.24;1736409;82;25859;-60
2022/08/22 04:31:16;;;;;;;14.87;7.30;;;;;;;21.49;74.88;100444.63;1736510;82;27520;-61
2022/08/22 04:34:08;;;;;;;12.82;7.78;;;;;;;21.51;74.40;100444.72;1736746;82;26057;-61
2022/08/22 04:36:44;;;;;;;15.65;7.70;;;;;;;21.50;74.09;100449.88;1736194;82;25820;-61
2022/08/22 04:39:23;;;;;;;15.00;6.95;;;;;;;21.55;74.29;100445.98;1729188;82;26587;-60
2022/08/22 04:42:10;;;;;;;14.03;7.28;;;;;;;21.58;74.16;100448.29;1720641;82;25762;-60
2022/08/22 04:44:57;;;;;;;21.37;7.30;;;;;;;21.63;74.25;100443.53;1737510;82;27453;-60
2022/08/22 04:47:38;;;;;;;16.77;7.65;;;;;;;21.74;74.41;100446.11;1771524;80;25701;-60
2022/08/22 04:50:37;;;;;;;23.18;7.67;;;;;;;21.78;74.19;100445.99;1771748;79;26457;-60
2022/08/22 04:53:48;;;;;;;16.57;7.60;;;;;;;21.84;74.00;100442.38;1776969;79;25863;-61
2022/08/22 04:56:42;;;;;;;20.65;8.05;;;;;;;21.91;73.92;100449.73;1741439;82;25791;-60
2022/08/22 04:59:17;;;;;;;;;;;;;;;21.99;73.66;100459.05;1743827;82;28270;-60
2022/08/22 05:01:49;;;;;;;17.95;7.67;;;;;;;22.07;73.31;100464.27;1724889;82;25934;-60
2022/08/22 05:04:24;;;;;;;19.20;7.25;;;;;;;22.13;73.03;100461.19;1724107;82;25777;-61
2022/08/22 05:06:59;;;;;;;16.77;8.08;;;;;;;22.14;72.77;100458.22;1724940;82;26612;-60
2022/08/22 05:09:30;;;;;;;23.45;8.35;;;;;;;22.22;72.77;100459.00;1724029;82;25820;-61
2022/08/22 05:12:03;;;;;;;15.78;9.30;;;;;;;22.24;72.18;100455.52;1724761;83;27489;-59
2022/08/22 05:14:47;;;;;;;31.05;12.47;;;;;;;22.20;71.66;100462.80;1724821;82;26129;-61
2022/08/22 05:17:19;;;;;;;22.35;9.03;;;;;;;22.22;71.87;100457.13;1724799;83;25757;-61
2022/08/22 05:19:51;;;;;;;17.62;9.28;;;;;;;22.30;71.58;100462.33;1802629;78;27957;-60
2022/08/22 05:22:25;;;;;;;21.23;8.03;;;;;;;22.38;71.51;100461.75;1809636;78;25839;-60
2022/08/22 05:24:57;;;;;;;17.65;7.97;;;;;;;22.47;71.61;100475.52;1806606;78;28143;-61
2022/08/22 05:27:29;;;;;;;16.65;8.15;;;;;;;22.56;71.16;100467.84;1806087;79;25799;-60
2022/08/22 05:30:08;;;;;;;20.17;8.88;;;;;;;22.62;70.99;100470.53;1806353;79;25809;-61
2022/08/22 05:32:49;;;;;;;17.40;8.60;;;;;;;22.73;71.09;100474.98;1833979;78;25915;-60
2022/08/22 05:35:21;;;;;;;13.43;8.50;;;;;;;22.78;70.42;100479.25;1825670;77;25761;-59
2022/08/22 05:37:52;;;;;;;18.57;9.70;;;;;;;22.76;70.06;100480.86;1805820;77;27769;-60
2022/08/22 05:40:27;;;;;;;13.20;9.13;;;;;;;22.79;69.98;100481.80;1809696;78;25798;-60
2022/08/22 05:42:57;;;;;;;25.17;9.83;;;;;;;22.77;69.56;100477.05;1810521;78;25778;-60
2022/08/22 05:45:26;;;;;;;22.55;9.40;;;;;;;22.75;69.47;100484.66;1796952;77;25823;-60
2022/08/22 05:48:16;;;;;;;25.77;10.45;;;;;;;22.77;69.64;100481.17;1741455;81;25871;-60
2022/08/22 05:50:57;;;;;;;20.27;9.75;;;;;;;22.83;69.62;100479.44;1729977;82;27440;-60
2022/08/22 05:53:40;;;;;;;28.45;9.30;;;;;;;22.88;69.47;100473.28;1707444;81;25995;-60
2022/08/22 05:56:21;;;;;;;18.40;9.45;;;;;;;22.94;69.55;100473.73;1761096;80;25770;-58
2022/08/22 05:58:53;;;;;;;27.65;9.15;;;;;;;23.03;69.53;100479.24;1759888;81;25851;-60
2022/08/22 06:01:35;;;;;;;21.77;8.95;;;;;;;23.09;69.52;100481.62;1761273;80;25816;-60
2022/08/22 06:04:37;;;;;;;25.97;9.10;;;;;;;23.12;69.20;100483.38;1760614;81;28282;-60
2022/08/22 06:07:28;;;;;;;19.95;9.50;;;;;;;23.15;68.98;100482.07;1760632;81;25805;-60
2022/08/22 06:10:06;;;;;;;24.67;9.00;;;;;;;23.22;69.01;100474.63;1760792;81;25743;-59
2022/08/22 06:12:52;;;;;;;23.47;8.30;;;;;;;23.31;68.88;100472.98;1760737;80;26833;-59
2022/08/22 06:15:31;;;;;;;18.67;8.03;;;;;;;23.32;68.41;100479.61;1752713;81;25748;-60
2022/08/22 06:18:05;;;;;;;18.62;8.78;;;;;;;23.38;68.54;100482.80;1759920;81;28864;-60
2022/08/22 06:20:58;;;;;;;17.80;8.65;;;;;;;23.44;67.96;100482.42;1757118;81;26384;-60
2022/08/22 06:23:52;;;;;;;25.20;9.65;;;;;;;23.50;67.88;100483.42;1814250;77;25769;-60
2022/08/22 06:26:20;;;;;;;12.13;8.55;;;;;;;23.62;67.76;100486.23;1797929;79;25819;-60
2022/08/22 06:28:52;;;;;;;19.27;9.68;;;;;;;23.68;67.26;100482.55;1799054;78;25751;-60
2022/08/22 06:31:41;;;;;;;22.27;8.98;;;;;;;23.75;67.08;100487.45;1799367;78;27539;-61
2022/08/22 06:34:16;;;;;;;24.37;10.03;;;;;;;23.80;66.76;100486.77;1798839;79;25795;-60
2022/08/22 06:36:48;;;;;;;15.05;9.33;;;;;;;23.88;66.61;100485.06;1798247;79;26206;-60
2022/08/22 06:39:32;;;;;;;20.75;9.23;;;;;;;23.94;66.34;100488.28;1801031;78;26488;-60
2022/08/22 06:42:13;;;;;;;17.40;9.10;;;;;;;24.04;66.19;100491.31;1807351;77;25716;-59
2022/08/22 06:44:51;;;;;;;18.55;9.18;;;;;;;24.10;66.41;100495.05;1799121;78;28652;-61
2022/08/22 06:47:29;;;;;;;25.95;8.28;;;;;;;24.18;66.40;100484.23;1798393;79;25920;-60
2022/08/22 06:50:02;;;;;;;20.90;7.58;;;;;;;24.22;66.46;100491.78;1798073;79;25735;-60
2022/08/22 06:52:33;;;;;;;21.33;8.60;;;;;;;24.32;66.22;100492.61;1798647;79;25831;-60
2022/08/22 06:55:05;;;;;;;22.13;7.17;;;;;;;24.40;65.82;100493.34;1797001;78;25790;-59
2022/08/22 06:57:40;;;;;;;25.97;7.28;;;;;;;24.51;65.65;100492.53;1796012;78;27512;-59
2022/08/22 07:00:14;;;;;;;23.47;7.28;;;;;;;24.60;65.35;100488.89;1795581;79;26431;-60
2022/08/22 07:02:46;;;;;;;26.68;8.43;;;;;;;24.67;65.08;100489.61;1795971;78;25810;-58
2022/08/22 07:05:21;;;;;;;24.45;8.33;;;;;;;24.78;65.05;100494.33;1779741;77;25968;-58
2022/08/22 07:07:51;;;;;;;22.52;7.83;;;;;;;24.91;64.86;100491.06;1778457;79;26133;-59
2022/08/22 07:10:22;;;;;;;22.25;7.83;;;;;;;25.03;64.42;100489.68;1742861;80;28273;-59
2022/08/22 07:12:53;;;;;;;18.52;7.92;;;;;;;25.07;64.45;100485.35;1778574;79;25791;-59
2022/08/22 07:15:39;;;;;;;21.68;8.25;;;;;;;25.18;64.27;100488.64;1778825;79;25729;-59
2022/08/22 07:18:17;;;;;;;19.45;7.78;;;;;;;25.26;63.90;100484.14;1778529;80;25855;-59
2022/08/22 07:20:51;;;;;;;23.05;8.05;;;;;;;25.35;63.86;100492.03;1807145;77;26227;-62
2022/08/22 07:23:35;;;;;;;19.23;7.70;;;;;;;25.44;63.60;100491.98;1809707;78;27467;-59
2022/08/22 07:26:26;;;;;;;20.37;7.40;;;;;;;25.54;63.11;100492.77;1801406;79;25803;-60
2022/08/22 07:29:32;;;;;;;17.73;7.75;;;;;;;25.62;63.31;100490.45;1801823;78;25975;-59
2022/08/22 07:32:28;;;;;;;21.00;8.00;;;;;;;25.73;63.07;100497.00;1801510;79;25773;-59
2022/08/22 07:35:15;;;;;;;23.15;7.95;;;;;;;25.85;62.98;100495.61;1800712;79;26345;-57
2022/08/22 07:37:54;;;;;;;17.80;7.80;;;;;;;25.97;62.98;100494.70;1798761;78;27530;-60
2022/08/22 07:40:30;;;;;;;21.17;9.33;;;;;;;26.08;62.76;100496.09;1801463;78;26369;-59
2022/08/22 07:43:27;;;;;;;21.20;8.35;;;;;;;26.17;62.24;100489.62;1801496;79;36961;-59
2022/08/22 07:46:05;;;;;;;23.27;7.62;;;;;;;26.26;61.96;100490.08;1801603;79;27225;-59
2022/08/22 07:48:49;;;;;;;23.57;6.75;;;;;;;26.41;61.95;100489.48;1801716;79;25976;-60
2022/08/22 07:51:24;;;;;;;20.75;7.60;;;;;;;26.54;62.07;100491.08;1801080;79;28459;-60
2022/08/22 07:54:05;;;;;;;29.48;7.87;;;;;;;26.71;61.60;100488.34;1800977;79;26513;-59
2022/08/22 07:56:41;;;;;;;23.50;7.17;;;;;;;26.78;61.17;100484.89;1799060;79;25944;-60
2022/08/22 07:59:13;;;;;;;20.88;7.58;;;;;;;26.88;61.00;100485.61;1798405;78;26688;-60
2022/08/22 08:01:50;;;;;;;32.48;6.62;;;;;;;26.90;60.29;100484.80;1799361;79;25997;-60
2022/08/22 08:04:25;;;;;;;30.23;6.62;;;;;;;27.04;60.21;100486.66;1798760;78;27408;-60
2022/08/22 08:06:55;;;;;;;23.07;6.85;;;;;;;27.21;59.62;100489.41;1798679;79;25799;-59
2022/08/22 08:09:26;;;;;;;26.75;6.95;;;;;;;27.45;59.22;100486.42;1810957;78;25809;-59
2022/08/22 08:11:54;;;;;;;21.50;6.03;;;;;;;27.69;58.93;100486.19;1831499;78;25942;-60
2022/08/22 08:14:24;;;;;;;29.20;5.47;;;;;;;27.91;58.54;100480.64;1831766;78;25461;-60
2022/08/22 08:17:05;;;;;;;22.90;5.85;;;;;;;28.14;57.25;100479.53;1831571;78;28210;-60
2022/08/22 08:19:39;;;;;;;31.80;6.35;;;;;;;28.33;56.53;100479.16;1823581;78;25707;-60
2022/08/22 08:22:07;;;;;;;27.82;5.90;;;;;;;28.48;55.24;100476.52;1773482;80;25786;-60
2022/08/22 08:24:40;;;;;;;22.42;6.10;;;;;;;28.71;55.45;100473.98;1786131;79;26570;-60
2022/08/22 08:30:24;;;;;;;34.67;6.45;;;;;;;29.14;52.63;100467.03;1794388;79;27476;-60
2022/08/22 08:32:56;;;;;;;29.52;5.10;;;;;;;29.36;51.52;100473.01;1787438;78;25443;-60
2022/08/22 08:35:27;;;;;;;42.20;5.72;;;;;;;29.56;50.16;100464.51;1794474;78;25501;-60
2022/08/22 08:38:26;;;;;;;27.45;5.62;;;;;;;29.69;50.72;100467.33;1794572;78;25796;-61
2022/08/22 08:41:29;;;;;;;24.63;5.33;;;;;;;29.91;50.80;100468.50;1791859;78;28219;-60
2022/08/22 08:44:36;;;;;;;23.65;5.47;;;;;;;30.22;50.66;100463.02;1789256;78;29302;-61
2022/08/22 08:47:36;;;;;;;25.52;6.17;;;;;;;30.57;49.98;100465.02;1789004;78;25969;-60
2022/08/22 08:50:44;;;;;;;36.10;6.20;;;;;;;30.67;49.45;100461.39;1792585;78;25736;-60
2022/08/22 08:53:31;;;;;;;35.38;6.90;;;;;;;30.59;48.99;100466.97;1792582;77;26781;-60
2022/08/22 08:56:04;;;;;;;37.48;7.45;;;;;;;30.55;49.73;100462.25;1742259;82;25720;-61
2022/08/22 08:58:49;;;;;;;46.08;7.08;;;;;;;30.71;49.44;100460.27;1750867;80;28399;-60
2022/08/22 09:01:38;;;;;;;32.33;6.22;;;;;;;30.78;48.05;100450.28;1814858;77;25818;-60
2022/08/22 09:04:20;;;;;;;47.48;7.28;;;;;;;30.82;48.88;100445.84;1812765;78;25741;-61
2022/08/22 09:06:58;;;;;;;46.00;6.30;;;;;;;31.09;48.07;100442.70;1763159;79;25659;-60
2022/08/22 09:09:33;;;;;;;42.95;7.45;;;;;;;31.19;46.89;100440.51;1733246;82;25740;-61
2022/08/22 09:12:14;;;;;;;58.15;8.30;;;;;;;31.02;47.49;100442.18;1767267;81;27653;-61
2022/08/22 09:15:06;;;;;;;42.27;7.00;;;;;;;30.87;47.65;100442.50;1762104;81;25444;-61
2022/08/22 09:18:02;;;;;;;53.00;6.78;;;;;;;30.67;48.25;100442.53;1742197;81;25849;-61
2022/08/22 09:20:52;;;;;;;45.45;7.72;;;;;;;30.51;48.66;100436.12;1741517;81;25775;-61
2022/08/22 09:24:01;;;;;;;47.83;7.03;;;;;;;30.48;49.17;100425.59;1736347;81;25738;-60
2022/08/22 09:26:57;;;;;;;46.28;7.33;;;;;;;30.43;49.12;100425.86;1803430;79;27565;-60
2022/08/22 09:29:50;;;;;;;54.63;7.65;;;;;;;30.33;49.07;100423.65;1796567;78;25454;-61
2022/08/22 09:32:32;;;;;;;42.15;7.95;;;;;;;30.18;48.99;100432.80;1797907;79;25763;-61
2022/08/22 09:35:06;;;;;;;43.50;5.28;;;;;;;30.06;49.84;100431.68;1797810;78;25903;-61
2022/08/22 09:38:20;;;;;;;45.25;7.87;;;;;;;30.11;50.00;100424.73;1796567;78;25775;-60
2022/08/22 09:41:28;;;;;;;48.90;6.60;;;;;;;30.14;50.04;100418.65;1797634;79;27688;-61
2022/08/22 09:44:15;;;;;;;55.28;8.03;;;;;;;30.06;49.83;100422.80;1796727;79;25992;-61
2022/08/22 09:47:07;;;;;;;62.90;7.45;;;;;;;30.14;49.04;100411.71;1797512;79;25693;-60
2022/08/22 09:50:06;;;;;;;57.90;6.35;;;;;;;30.35;49.00;100406.14;1799830;79;25918;-60
2022/08/22 09:52:47;;;;;;;56.13;7.05;;;;;;;30.48;49.01;100396.45;1800540;79;25623;-61
2022/08/22 09:55:43;;;;;;;59.05;6.25;;;;;;;30.55;48.30;100394.25;1799417;79;27705;-61
2022/08/22 09:58:50;;;;;;;56.05;7.05;;;;;;;30.58;47.58;100394.52;1774294;80;25923;-60
2022/08/22 10:01:56;;;;;;;35.33;6.45;;;;;;;30.46;48.20;100392.55;1772801;80;26354;-59
2022/08/22 10:04:54;;;;;;;62.10;8.00;;;;;;;30.45;48.62;100400.59;1773949;80;25863;-59
2022/08/22 10:07:38;;;;;;;58.55;7.10;;;;;;;30.27;48.72;100398.66;1778671;80;25798;-60
2022/08/22 10:10:54;;;;;;;70.75;6.92;;;;;;;30.13;49.28;100389.24;1779655;79;28293;-59
2022/08/22 10:14:01;;;;;;;57.20;7.28;;;;;;;30.02;48.94;100389.80;1779606;79;25815;-60
2022/08/22 10:17:04;;;;;;;58.13;7.53;;;;;;;30.10;48.21;100393.41;1742280;82;25526;-61
2022/08/22 10:19:51;;;;;;;64.13;7.53;;;;;;;30.20;48.54;100388.41;1757340;80;26824;-61
2022/08/22 10:22:40;;;;;;;51.98;6.95;;;;;;;30.36;48.13;100391.16;1810699;77;25783;-61
2022/08/22 10:25:36;;;;;;;60.88;8.13;;;;;;;30.49;47.83;100397.55;1804170;78;27813;-61
2022/08/22 10:28:31;;;;;;;48.23;7.42;;;;;;;30.62;47.92;100397.56;1802731;79;25719;-61
2022/08/22 10:31:15;;;;;;;43.95;6.90;;;;;;;30.83;47.68;100399.73;1784154;77;25764;-61
2022/08/22 10:34:08;;;;;;;40.50;6.20;;;;;;;31.42;47.51;100401.51;1769331;79;25977;-61
2022/08/22 10:36:59;;;;;;;48.83;6.08;;;;;;;31.58;44.92;100400.84;1762899;79;26000;-61
2022/08/22 10:39:32;;;;;;;39.83;5.10;;;;;;;31.56;44.08;100388.36;1779588;80;28435;-61
2022/08/22 10:42:18;;;;;;;47.55;5.65;;;;;;;31.55;45.53;100383.37;1779281;79;25747;-61
2022/08/22 10:45:23;;;;;;;33.78;5.80;;;;;;;31.59;45.48;100378.06;1781984;78;25772;-61
2022/08/22 10:48:07;;;;;;;51.23;6.75;;;;;;;31.62;44.71;100376.08;1780371;79;25890;-61
2022/08/22 10:50:44;;;;;;;47.93;6.00;;;;;;;31.51;43.91;100373.36;1740405;81;25808;-61
2022/08/22 10:53:41;;;;;;;33.18;5.55;;;;;;;31.55;45.44;100368.08;1737137;81;27587;-61
2022/08/22 10:56:28;;;;;;;39.80;5.70;;;;;;;32.08;44.14;100364.66;1736525;82;26344;-60
2022/08/22 10:59:18;;;;;;;28.92;4.35;;;;;;;32.33;41.96;100364.75;1747628;82;25827;-61
2022/08/22 11:01:53;;;;;;;39.60;5.05;;;;;;;32.44;40.28;100360.18;1785039;80;25930;-61
2022/08/22 11:04:34;;;;;;;34.95;4.67;;;;;;;32.44;39.82;100362.97;1783043;79;25770;-61
2022/08/22 11:07:19;;;;;;;42.00;6.62;;;;;;;32.55;41.03;100362.87;1747835;81;27502;-61
2022/08/22 11:09:53;;;;;;;36.55;5.62;;;;;;;32.58;40.68;100365.07;1783315;80;25972;-62
2022/08/22 11:12:37;;;;;;;33.38;4.30;;;;;;;32.53;40.40;100373.45;1776843;78;25742;-61
2022/08/22 11:15:12;;;;;;;39.85;5.42;;;;;;;32.52;39.53;100368.47;1774227;80;26016;-62
2022/08/22 11:18:19;;;;;;;26.17;5.00;;;;;;;32.47;40.10;100374.07;1772938;79;25452;-62
2022/08/22 11:21:09;;;;;;;36.95;4.62;;;;;;;32.55;38.88;100369.25;1803370;77;28425;-60
2022/08/22 11:23:44;;;;;;;27.45;4.08;;;;;;;32.69;39.00;100374.95;1804395;78;25731;-61
2022/08/22 11:26:40;;;;;;;23.38;4.97;;;;;;;33.02;39.03;100377.97;1791413;79;25849;-61
2022/08/22 11:29:31;;;;;;;30.52;4.05;;;;;;;33.35;38.39;100375.34;1799058;79;25797;-61
2022/08/22 11:32:03;;;;;;;31.00;3.83;;;;;;;33.67;38.00;100375.16;1797178;79;25462;-62
2022/08/22 11:34:35;;;;;;;28.50;3.80;;;;;;;34.22;34.66;100375.73;1796940;79;27443;-62
2022/08/22 11:37:29;;;;;;;23.05;4.40;;;;;;;34.87;34.70;100380.40;1797388;79;25692;-61
2022/08/22 11:40:33;;;;;;;19.05;3.95;;;;;;;36.01;34.30;100372.35;1788454;79;25676;-62
2022/08/22 11:43:18;;;;;;;26.17;3.67;;;;;;;37.09;33.64;100368.66;1803209;78;27053;-62
2022/08/22 11:45:50;;;;;;;31.95;6.25;;;;;;;37.89;30.28;100361.99;1799828;79;25759;-62
2022/08/22 11:48:37;;;;;;;28.90;4.67;;;;;;;37.91;29.49;100362.49;1800235;79;27579;-62
2022/08/22 11:51:38;;;;;;;31.82;6.62;;;;;;;37.86;29.65;100366.89;1799699;79;25715;-60
2022/08/22 11:54:19;;;;;;;31.95;4.37;;;;;;;37.84;29.79;100369.97;1798069;78;25636;-61
2022/08/22 11:56:55;;;;;;;26.25;4.12;;;;;;;37.78;30.44;100369.09;1794166;78;25824;-61
2022/08/22 11:59:52;;;;;;;23.62;3.98;;;;;;;37.49;29.98;100371.38;1794916;79;25961;-61
2022/08/22 12:02:50;;;;;;;25.20;4.62;;;;;;;37.18;30.11;100371.47;1794225;78;27492;-61
2022/08/22 12:05:49;;;;;;;23.62;3.70;;;;;;;36.66;30.68;100360.32;1794374;79;26311;-60
2022/08/22 12:08:39;;;;;;;30.25;4.60;;;;;;;36.40;31.08;100355.98;1794657;79;25722;-61
2022/08/22 12:11:22;;;;;;;42.73;4.25;;;;;;;36.16;31.60;100353.79;1782195;79;25868;-61
2022/08/22 12:13:59;;;;;;;30.92;4.35;;;;;;;35.94;31.67;100352.38;1794310;78;25735;-62
2022/08/22 12:16:34;;;;;;;40.20;4.40;;;;;;;35.66;32.50;100353.87;1793817;78;27550;-62
2022/08/22 12:19:21;;;;;;;31.95;4.28;;;;;;;35.40;33.09;100344.12;1790251;79;26200;-62
2022/08/22 12:22:12;;;;;;;34.78;4.78;;;;;;;35.08;33.17;100348.70;1772912;80;25735;-58
2022/08/22 12:24:59;;;;;;;34.20;4.70;;;;;;;34.69;33.73;100340.81;1786428;79;25854;-62
2022/08/22 12:28:11;;;;;;;53.98;5.65;;;;;;;34.28;34.30;100338.20;1793892;79;25776;-61
2022/08/22 12:31:00;;;;;;;36.83;5.08;;;;;;;33.85;34.93;100330.80;1794527;79;27482;-61
2022/08/22 12:33:55;;;;;;;36.75;4.85;;;;;;;33.43;35.61;100333.98;1788502;79;25776;-61
2022/08/22 12:36:35;;;;;;;26.23;3.98;;;;;;;33.11;36.62;100336.91;1738229;82;25768;-60
2022/08/22 12:39:25;;;;;;;41.20;4.40;;;;;;;32.86;36.82;100329.11;1752614;81;26649;-61
2022/08/22 12:42:22;;;;;;;26.10;4.05;;;;;;;32.61;36.72;100326.88;1757435;81;25951;-60
2022/08/22 12:45:13;;;;;;;28.80;4.50;;;;;;;32.48;37.48;100324.81;1768468;81;28574;-61
2022/08/22 12:47:57;;;;;;;40.45;4.30;;;;;;;32.39;37.65;100324.06;1728606;80;25733;-60
2022/08/22 12:50:48;;;;;;;36.33;5.35;;;;;;;32.42;38.09;100329.59;1739888;82;25862;-60
2022/08/22 12:53:32;;;;;;;52.95;5.25;;;;;;;32.49;38.12;100323.69;1730759;80;26515;-61
2022/08/22 12:56:19;;;;;;;32.90;4.42;;;;;;;32.58;37.80;100330.27;1761406;81;25758;-61
2022/08/22 12:59:17;;;;;;;38.75;4.67;;;;;;;32.58;37.34;100327.48;1760274;81;27617;-61
2022/08/22 13:01:48;;;;;;;35.52;5.47;;;;;;;32.47;38.87;100315.61;1758931;80;26167;-61
2022/08/22 13:04:22;;;;;;;50.85;5.70;;;;;;;32.43;40.88;100307.02;1735398;82;25802;-62
2022/08/22 13:07:18;;;;;;;32.42;5.37;;;;;;;32.33;40.20;100305.73;1730750;81;25943;-62